Time;durP1;ratioP1;P1;durP2;ratioP2;P2;SDS_P1;SDS_P2;PMS_P1;PMS_P2;Temp;Humidity;BMP_temperature;BMP_pressure;BME280_temperature;BME280_humidity;BME280_pressure;Samples;Min_cycle;Max_cycle;Signal;HPM_P1;HPM_P2
2023/03/05 00:01:34;;;;;;;50.42;34.53;;;;;;;5.69;100.00;92632.41;5072987;28;20045;-72
2023/03/05 00:04:03;;;;;;;50.25;34.63;;;;;;;5.66;100.00;92633.59;5072903;28;20048;-72
2023/03/05 00:06:31;;;;;;;53.78;30.23;;;;;;;5.67;100.00;92629.25;5072761;28;20074;-72
2023/03/05 00:08:58;;;;;;;42.60;28.30;;;;;;;5.70;100.00;92626.34;5072651;28;20045;-72
2023/03/05 00:11:28;;;;;;;50.30;31.60;;;;;;;5.67;100.00;92614.75;5067930;28;20548;-72
2023/03/05 00:13:55;;;;;;;47.63;30.85;;;;;;;5.54;100.00;92600.22;5047946;28;20125;-72
2023/03/05 00:16:25;;;;;;;48.63;33.13;;;;;;;5.70;100.00;92618.69;5049340;28;20044;-72
2023/03/05 00:18:52;;;;;;;54.10;33.95;;;;;;;5.64;100.00;92611.81;5048004;28;20505;-72
2023/03/05 00:21:24;;;;;;;48.15;31.10;;;;;;;5.61;100.00;92611.22;5051610;28;20045;-73
2023/03/05 00:23:52;;;;;;;56.53;33.78;;;;;;;5.61;100.00;92608.66;5052190;28;20088;-72
2023/03/05 00:26:19;;;;;;;45.05;29.90;;;;;;;5.53;100.00;92588.47;5051872;28;20102;-72
2023/03/05 00:28:48;;;;;;;45.78;30.00;;;;;;;5.68;100.00;92611.22;5053035;28;20122;-72
2023/03/05 00:31:15;;;;;;;47.53;28.85;;;;;;;5.67;100.00;92607.13;5053397;28;20044;-73
2023/03/05 00:33:43;;;;;;;51.35;31.88;;;;;;;5.51;100.00;92598.06;5060465;28;20045;-72
2023/03/05 00:36:11;;;;;;;55.65;32.30;;;;;;;5.47;100.00;92609.63;5051038;28;20090;-72
2023/03/05 00:38:37;;;;;;;55.13;34.03;;;;;;;5.35;100.00;92597.47;5049849;28;20139;-72
2023/03/05 00:41:04;;;;;;;56.92;34.03;;;;;;;5.38;100.00;92608.22;5043801;28;20041;-72
2023/03/05 00:43:31;;;;;;;60.85;36.95;;;;;;;5.15;100.00;92597.41;5050960;28;20080;-72
2023/03/05 00:45:58;;;;;;;61.78;37.97;;;;;;;5.06;100.00;92591.69;5048950;28;20835;-71
2023/03/05 00:48:25;;;;;;;62.75;39.75;;;;;;;4.91;100.00;92593.59;5047061;28;20048;-72
2023/03/05 00:50:53;;;;;;;65.15;40.35;;;;;;;4.68;100.00;92587.03;5050032;28;20072;-72
2023/03/05 00:53:20;;;;;;;64.40;37.85;;;;;;;4.58;100.00;92581.50;5050480;28;20091;-72
2023/03/05 00:55:46;;;;;;;59.63;37.00;;;;;;;4.47;100.00;92567.56;5057315;28;20094;-72
2023/03/05 00:58:13;;;;;;;58.70;34.97;;;;;;;4.54;100.00;92574.25;5047190;28;20049;-72
2023/03/05 01:00:41;;;;;;;59.00;36.70;;;;;;;4.53;100.00;92574.44;5048590;28;21336;-72
2023/03/05 01:03:08;;;;;;;65.03;40.10;;;;;;;4.37;100.00;92555.97;5050833;28;20053;-72
2023/03/05 01:05:35;;;;;;;65.40;42.67;;;;;;;4.43;100.00;92566.38;5050856;28;20045;-72
2023/03/05 01:08:03;;;;;;;65.75;41.38;;;;;;;4.35;100.00;92557.13;5047628;28;20049;-72
2023/03/05 01:10:30;;;;;;;61.33;37.97;;;;;;;4.39;100.00;92561.66;5050943;28;20095;-72
2023/03/05 01:12:57;;;;;;;60.35;36.47;;;;;;;4.43;100.00;92571.47;5051099;28;20047;-72
2023/03/05 01:15:25;;;;;;;62.08;36.67;;;;;;;4.27;100.00;92533.41;5048673;28;20049;-73
2023/03/05 01:17:51;;;;;;;53.65;36.08;;;;;;;4.56;100.00;92568.97;5050342;28;20045;-72
2023/03/05 01:20:20;;;;;;;52.75;35.05;;;;;;;4.65;100.00;92569.59;5050408;28;20053;-72
2023/03/05 01:22:47;;;;;;;53.97;36.03;;;;;;;4.75;100.00;92566.69;5050472;28;20095;-72
2023/03/05 01:25:17;;;;;;;53.78;34.92;;;;;;;4.80;100.00;92567.72;5050575;28;20072;-72
2023/03/05 01:27:44;;;;;;;53.58;34.10;;;;;;;4.91;100.00;92563.81;5048031;28;20084;-72
2023/03/05 01:30:12;;;;;;;55.38;34.35;;;;;;;4.94;100.00;92562.66;5053048;28;20107;-72
2023/03/05 01:32:39;;;;;;;56.00;33.70;;;;;;;5.01;100.00;92566.03;5050383;28;20509;-72
2023/03/05 01:35:07;;;;;;;50.45;31.23;;;;;;;5.10;100.00;92570.94;5047942;28;20068;-72
2023/03/05 01:37:34;;;;;;;46.45;28.92;;;;;;;5.13;100.00;92571.34;5050487;28;20049;-72
2023/03/05 01:40:01;;;;;;;48.03;31.20;;;;;;;5.02;100.00;92546.44;5047594;28;20041;-72
2023/03/05 01:42:29;;;;;;;53.10;32.88;;;;;;;5.12;100.00;92558.78;5050193;28;20045;-72
2023/03/05 01:45:02;;;;;;;49.10;31.35;;;;;;;5.14;100.00;92559.41;5049270;28;20040;-72
2023/03/05 01:47:28;;;;;;;46.25;29.40;;;;;;;5.16;100.00;92555.69;5050548;28;20048;-73
2023/03/05 01:49:56;;;;;;;48.38;30.15;;;;;;;5.14;100.00;92547.44;5049202;28;20465;-72
2023/03/05 01:52:24;;;;;;;47.65;28.77;;;;;;;5.25;100.00;92553.75;5050223;28;20049;-72
2023/03/05 01:54:55;;;;;;;48.08;29.77;;;;;;;5.05;100.00;92525.72;5050518;28;20189;-72
2023/03/05 01:57:27;;;;;;;45.75;29.77;;;;;;;5.26;100.00;92559.59;5049874;28;20045;-72
2023/03/05 01:59:59;;;;;;;45.03;29.55;;;;;;;5.27;100.00;92554.34;5049082;28;20497;-72
2023/03/05 02:02:26;;;;;;;45.95;29.35;;;;;;;5.29;100.00;92549.84;5049169;28;20052;-72
2023/03/05 02:04:57;;;;;;;53.97;31.63;;;;;;;5.27;100.00;92556.88;5049660;28;20206;-72
2023/03/05 02:07:25;;;;;;;45.58;30.25;;;;;;;5.15;100.00;92540.59;5045478;28;20049;-71
2023/03/05 02:09:52;;;;;;;49.70;29.58;;;;;;;5.31;100.00;92554.72;5046246;28;20052;-71
2023/03/05 02:12:18;;;;;;;47.80;32.05;;;;;;;5.32;100.00;92556.31;5050377;28;20127;-71
2023/03/05 02:14:48;;;;;;;52.42;32.15;;;;;;;5.31;100.00;92552.97;5050110;28;20095;-71
2023/03/05 02:17:16;;;;;;;44.72;29.50;;;;;;;5.22;100.00;92546.47;5050107;28;20041;-71
2023/03/05 02:19:48;;;;;;;48.55;29.83;;;;;;;5.38;100.00;92557.28;5049541;28;20063;-71
2023/03/05 02:22:19;;;;;;;42.55;28.63;;;;;;;5.34;100.00;92546.72;5049072;28;20440;-71
2023/03/05 02:24:45;;;;;;;45.88;28.70;;;;;;;5.42;100.00;92566.88;5046651;28;20052;-72
2023/03/05 02:27:13;;;;;;;50.60;31.35;;;;;;;5.41;100.00;92559.47;5049487;28;20084;-72
2023/03/05 02:29:45;;;;;;;42.05;28.17;;;;;;;5.37;100.00;92551.41;5057554;28;20110;-72
2023/03/05 02:32:13;;;;;;;49.75;28.90;;;;;;;5.21;100.00;92527.09;5049092;28;20095;-72
2023/03/05 02:34:40;;;;;;;39.00;27.00;;;;;;;5.43;100.00;92557.50;5046338;28;20095;-72
2023/03/05 02:37:08;;;;;;;44.70;27.95;;;;;;;5.44;100.00;92562.41;5048953;28;20048;-72
2023/03/05 02:39:38;;;;;;;44.42;28.63;;;;;;;5.46;100.00;92562.22;5050158;28;20057;-71
2023/03/05 02:42:05;;;;;;;45.72;27.85;;;;;;;5.45;100.00;92558.06;5069484;28;20564;-71
2023/03/05 02:44:32;;;;;;;41.78;27.38;;;;;;;5.44;100.00;92557.31;5066537;28;20052;-71
2023/03/05 02:46:59;;;;;;;48.92;28.83;;;;;;;5.42;100.00;92559.25;5069999;28;20045;-72
2023/03/05 02:49:44;;;;;;;47.65;30.50;;;;;;;5.42;100.00;92558.47;5069622;28;20147;-72
2023/03/05 02:52:11;;;;;;;59.38;33.83;;;;;;;5.39;100.00;92557.09;5069911;28;20048;-73
2023/03/05 02:54:39;;;;;;;56.53;34.20;;;;;;;5.38;100.00;92559.84;5069226;28;20089;-72
2023/03/05 02:57:06;;;;;;;74.45;39.75;;;;;;;5.35;100.00;92556.72;5069761;28;20045;-72
2023/03/05 02:59:33;;;;;;;56.03;34.75;;;;;;;5.12;100.00;92534.13;5069784;28;20444;-72
2023/03/05 03:01:59;;;;;;;49.30;31.98;;;;;;;4.92;100.00;92554.44;5069378;28;20098;-73
2023/03/05 03:04:26;;;;;;;55.63;39.20;;;;;;;4.90;100.00;92551.28;5069370;28;20408;-72
2023/03/05 03:06:53;;;;;;;63.63;40.10;;;;;;;4.73;100.00;92546.56;5069730;28;20094;-72
2023/03/05 03:09:20;;;;;;;62.83;39.30;;;;;;;4.54;100.00;92537.88;5055986;28;20048;-71
2023/03/05 03:11:48;;;;;;;58.40;35.47;;;;;;;4.28;100.00;92550.25;5069480;28;20393;-72
2023/03/05 03:14:14;;;;;;;54.75;35.83;;;;;;;4.23;100.00;92551.78;5068969;28;20493;-72
2023/03/05 03:16:41;;;;;;;56.30;35.15;;;;;;;4.16;100.00;92551.72;5069320;28;20101;-72
2023/03/05 03:19:08;;;;;;;55.13;35.28;;;;;;;4.07;100.00;92546.00;5069049;28;20127;-72
2023/03/05 03:21:34;;;;;;;50.13;33.28;;;;;;;4.10;100.00;92560.09;5069082;28;20086;-72
2023/03/05 03:24:01;;;;;;;51.92;32.00;;;;;;;4.02;100.00;92553.41;5068367;28;20102;-72
2023/03/05 03:26:29;;;;;;;48.97;31.63;;;;;;;3.90;100.00;92565.84;5069137;28;20049;-72
2023/03/05 03:28:57;;;;;;;44.03;28.92;;;;;;;3.96;100.00;92556.69;5068711;28;20041;-72
2023/03/05 03:31:24;;;;;;;52.97;33.10;;;;;;;4.08;100.00;92557.75;5068984;28;20121;-72
2023/03/05 03:33:51;;;;;;;51.58;31.35;;;;;;;4.18;100.00;92557.44;5068955;28;20488;-72
2023/03/05 03:36:18;;;;;;;53.97;32.55;;;;;;;4.29;100.00;92558.66;5068690;28;20504;-72
2023/03/05 03:38:44;;;;;;;49.80;31.95;;;;;;;4.27;100.00;92556.28;5068854;28;20060;-72
2023/03/05 03:41:11;;;;;;;45.33;26.73;;;;;;;4.23;100.00;92564.50;5069105;28;20048;-72
2023/03/05 03:43:38;;;;;;;41.00;24.98;;;;;;;4.11;100.00;92559.94;5068543;28;20684;-72
2023/03/05 03:46:07;;;;;;;37.92;23.52;;;;;;;4.03;100.00;92575.31;5069091;28;20451;-72
2023/03/05 03:48:34;;;;;;;39.33;22.27;;;;;;;3.83;100.00;92575.16;5068765;28;20098;-72
2023/03/05 03:51:05;;;;;;;40.80;23.15;;;;;;;3.65;100.00;92580.69;5068948;28;20137;-72
2023/03/05 03:53:31;;;;;;;35.65;23.55;;;;;;;3.62;100.00;92576.78;5069243;28;20048;-72
2023/03/05 03:55:58;;;;;;;36.95;24.23;;;;;;;3.62;100.00;92576.78;5068339;28;20106;-72
2023/03/05 03:58:25;;;;;;;39.00;23.42;;;;;;;3.60;100.00;92576.94;5068827;28;20044;-72
2023/03/05 04:00:52;;;;;;;37.10;23.17;;;;;;;3.30;100.00;92564.38;5068387;28;20496;-71
2023/03/05 04:03:20;;;;;;;36.40;21.58;;;;;;;3.34;100.00;92575.72;5069093;28;20040;-71
2023/03/05 04:05:47;;;;;;;36.60;22.13;;;;;;;3.34;100.00;92585.88;5068552;28;20090;-71
2023/03/05 04:08:13;;;;;;;35.90;21.73;;;;;;;3.19;100.00;92580.06;5068827;28;20048;-72
2023/03/05 04:10:40;;;;;;;36.50;21.55;;;;;;;3.03;100.00;92581.09;5067932;28;20504;-72
2023/03/05 04:13:07;;;;;;;38.30;22.17;;;;;;;3.08;100.00;92576.25;5068871;28;20098;-71
2023/03/05 04:15:34;;;;;;;40.42;24.15;;;;;;;2.91;100.00;92563.78;5068082;28;20098;-71
2023/03/05 04:18:01;;;;;;;36.28;21.67;;;;;;;3.01;100.00;92570.34;5068889;28;20071;-71
2023/03/05 04:20:29;;;;;;;38.90;23.42;;;;;;;2.97;100.00;92574.97;5068459;28;20076;-71
2023/03/05 04:22:56;;;;;;;37.45;23.13;;;;;;;2.98;100.00;92573.22;5068755;28;20927;-71
2023/03/05 04:25:22;;;;;;;39.13;23.58;;;;;;;3.09;100.00;92570.22;5068399;28;20048;-71
2023/03/05 04:27:49;;;;;;;38.95;22.98;;;;;;;2.99;100.00;92585.72;5068603;28;20094;-71
2023/03/05 04:30:16;;;;;;;38.00;21.95;;;;;;;3.07;100.00;92579.75;5068111;28;20052;-72
2023/03/05 04:32:42;;;;;;;38.78;22.20;;;;;;;2.97;100.00;92574.97;5068568;28;20048;-71
2023/03/05 04:35:09;;;;;;;38.92;23.15;;;;;;;2.94;100.00;92570.25;5068567;28;20131;-71
2023/03/05 04:37:37;;;;;;;39.42;21.98;;;;;;;3.01;100.00;92585.56;5072254;28;20052;-71
2023/03/05 04:40:05;;;;;;;38.42;21.27;;;;;;;2.94;100.00;92580.41;5071772;28;20049;-71
2023/03/05 04:42:32;;;;;;;36.47;22.15;;;;;;;2.96;100.00;92573.38;5071927;28;20044;-71
2023/03/05 04:44:59;;;;;;;37.05;22.75;;;;;;;2.98;100.00;92581.63;5072020;28;20495;-71
2023/03/05 04:47:26;;;;;;;37.67;23.00;;;;;;;2.72;100.00;92539.00;5062507;28;20049;-71
2023/03/05 04:49:52;;;;;;;38.50;24.20;;;;;;;3.00;100.00;92581.44;5053955;28;20061;-70
2023/03/05 04:52:19;;;;;;;37.80;23.52;;;;;;;3.05;100.00;92582.47;5048578;28;20049;-72
2023/03/05 04:54:47;;;;;;;41.95;24.73;;;;;;;3.09;100.00;92582.13;5051540;28;20440;-72
2023/03/05 04:57:14;;;;;;;38.90;22.35;;;;;;;2.91;100.00;92573.94;5069177;28;20086;-71
2023/03/05 04:59:41;;;;;;;41.92;23.77;;;;;;;2.97;100.00;92582.59;5059404;28;20049;-71
2023/03/05 05:02:08;;;;;;;36.58;22.48;;;;;;;2.95;100.00;92576.91;5053858;28;20505;-72
2023/03/05 05:04:35;;;;;;;42.33;23.92;;;;;;;3.02;100.00;92580.28;5051174;28;20078;-72
2023/03/05 05:07:02;;;;;;;35.33;20.88;;;;;;;2.97;100.00;92580.06;5056290;28;20041;-72
2023/03/05 05:09:29;;;;;;;40.75;24.48;;;;;;;3.05;100.00;92584.22;5051278;28;20053;-71
2023/03/05 05:11:57;;;;;;;42.28;23.67;;;;;;;2.86;100.00;92586.34;5045893;28;20126;-72
2023/03/05 05:14:23;;;;;;;36.08;21.35;;;;;;;2.89;100.00;92587.75;5050855;28;20792;-71
2023/03/05 05:16:52;;;;;;;38.85;22.02;;;;;;;2.76;100.00;92596.78;5050349;28;20620;-71
2023/03/05 05:19:18;;;;;;;38.28;22.45;;;;;;;2.70;100.00;92594.16;5049018;28;20114;-71
2023/03/05 05:21:47;;;;;;;32.65;20.55;;;;;;;2.64;100.00;92603.28;5047740;28;20088;-71
2023/03/05 05:24:14;;;;;;;37.08;19.30;;;;;;;2.59;100.00;92606.31;5049778;28;20060;-71
2023/03/05 05:26:40;;;;;;;37.25;20.67;;;;;;;2.64;100.00;92606.59;5050924;28;20091;-72
2023/03/05 05:29:08;;;;;;;35.97;19.77;;;;;;;2.56;100.00;92606.69;5051070;28;20053;-72
2023/03/05 05:31:35;;;;;;;33.08;20.77;;;;;;;2.64;100.00;92608.34;5050931;28;20056;-73
2023/03/05 05:34:02;;;;;;;34.78;20.50;;;;;;;2.70;100.00;92609.38;5053761;28;20041;-72
2023/03/05 05:36:29;;;;;;;41.35;21.75;;;;;;;2.74;100.00;92618.22;5064374;28;20771;-72
2023/03/05 05:38:55;;;;;;;39.55;22.88;;;;;;;2.87;100.00;92615.06;5045139;28;20093;-72
2023/03/05 05:41:22;;;;;;;39.58;20.15;;;;;;;2.79;100.00;92615.94;5060323;28;20056;-72
2023/03/05 05:43:49;;;;;;;35.95;20.27;;;;;;;2.83;100.00;92621.44;5063920;28;20053;-72
2023/03/05 05:46:19;;;;;;;35.97;20.83;;;;;;;2.94;100.00;92626.06;5054010;28;20044;-72
2023/03/05 05:48:46;;;;;;;33.92;19.83;;;;;;;3.03;100.00;92629.28;5063301;28;20094;-72
2023/03/05 05:51:15;;;;;;;36.05;21.77;;;;;;;3.10;100.00;92627.59;5059888;28;20094;-72
2023/03/05 05:53:42;;;;;;;37.97;20.02;;;;;;;3.15;100.00;92634.72;5067757;28;20489;-72
2023/03/05 05:56:10;;;;;;;37.90;22.27;;;;;;;2.91;100.00;92627.22;5058114;28;20102;-72
2023/03/05 05:58:38;;;;;;;58.38;28.33;;;;;;;3.05;100.00;92632.44;5063622;28;20053;-72
2023/03/05 06:01:12;;;;;;;45.83;25.75;;;;;;;3.21;100.00;92634.75;5069600;28;20080;-72
2023/03/05 06:03:40;;;;;;;42.90;23.77;;;;;;;3.34;100.00;92639.19;5063441;28;20052;-72
2023/03/05 06:06:09;;;;;;;38.13;21.20;;;;;;;3.33;100.00;92646.97;5070242;28;20040;-71
2023/03/05 06:08:36;;;;;;;35.38;20.83;;;;;;;3.50;100.00;92645.03;5070416;28;20048;-72
2023/03/05 06:11:03;;;;;;;37.05;21.25;;;;;;;3.51;100.00;92646.59;5043364;28;20101;-72
2023/03/05 06:13:29;;;;;;;37.03;21.67;;;;;;;3.67;100.00;92649.88;5070486;28;20049;-71
2023/03/05 06:15:57;;;;;;;41.65;23.25;;;;;;;3.66;100.00;92656.69;5070588;28;20036;-71
2023/03/05 06:18:24;;;;;;;32.80;18.88;;;;;;;3.69;100.00;92655.56;5070351;28;20044;-72
2023/03/05 06:20:56;;;;;;;34.25;19.50;;;;;;;3.55;100.00;92626.69;5068608;28;20053;-72
2023/03/05 06:23:24;;;;;;;32.72;19.98;;;;;;;3.44;100.00;92641.47;5070212;28;20076;-71
2023/03/05 06:25:50;;;;;;;34.03;19.05;;;;;;;3.54;100.00;92660.69;5070146;28;20044;-71
2023/03/05 06:28:17;;;;;;;31.35;18.08;;;;;;;3.68;100.00;92664.13;5056593;28;20122;-72
2023/03/05 06:30:44;;;;;;;32.63;19.70;;;;;;;3.61;100.00;92664.06;5070192;28;20084;-72
2023/03/05 06:33:11;;;;;;;33.95;18.65;;;;;;;3.43;100.00;92661.94;5063232;28;20135;-73
2023/03/05 06:35:39;;;;;;;29.17;17.88;;;;;;;3.39;100.00;92668.34;5063968;28;20081;-72
2023/03/05 06:38:07;;;;;;;35.70;18.90;;;;;;;3.54;100.00;92669.09;5063236;28;20070;-72
2023/03/05 06:40:34;;;;;;;32.58;19.50;;;;;;;3.70;100.00;92662.22;5056525;28;20574;-72
2023/03/05 06:43:01;;;;;;;42.13;23.83;;;;;;;3.81;100.00;92668.56;5050949;28;20142;-72
2023/03/05 06:45:29;;;;;;;29.75;17.38;;;;;;;3.58;100.00;92641.59;5048760;28;20478;-71
2023/03/05 06:47:56;;;;;;;34.03;20.02;;;;;;;3.70;100.00;92670.63;5049082;28;20079;-71
2023/03/05 06:50:23;;;;;;;32.95;18.52;;;;;;;3.52;100.00;92665.94;5060787;28;20057;-71
2023/03/05 06:52:50;;;;;;;29.48;17.55;;;;;;;3.51;100.00;92668.69;5049257;28;20053;-71
2023/03/05 06:55:18;;;;;;;34.38;18.50;;;;;;;3.52;100.00;92675.31;5057895;28;20390;-71
2023/03/05 06:57:45;;;;;;;29.77;16.95;;;;;;;3.59;100.00;92678.72;5051017;28;20045;-71
2023/03/05 07:00:13;;;;;;;33.30;17.35;;;;;;;3.58;100.00;92680.47;5069401;28;20041;-72
2023/03/05 07:02:40;;;;;;;28.42;17.55;;;;;;;3.50;100.00;92651.84;5066899;28;20086;-72
2023/03/05 07:05:08;;;;;;;36.03;20.80;;;;;;;3.83;100.00;92676.78;5069679;28;20080;-72
2023/03/05 07:07:35;;;;;;;27.90;16.55;;;;;;;3.87;100.00;92678.00;5068686;28;20056;-72
2023/03/05 07:10:02;;;;;;;29.85;17.02;;;;;;;3.92;100.00;92673.16;5069563;28;20099;-72
2023/03/05 07:12:30;;;;;;;29.13;16.80;;;;;;;3.99;100.00;92665.59;5069312;28;20080;-72
2023/03/05 07:14:57;;;;;;;28.65;16.73;;;;;;;4.11;100.00;92676.84;5069656;28;20044;-72
2023/03/05 07:17:23;;;;;;;38.40;20.17;;;;;;;4.27;100.00;92669.94;5069022;28;20049;-72
2023/03/05 07:19:50;;;;;;;30.83;18.30;;;;;;;4.37;100.00;92672.94;5068634;28;20569;-73
2023/03/05 07:22:17;;;;;;;27.33;15.77;;;;;;;4.36;100.00;92676.44;5066216;28;20063;-72
2023/03/05 07:24:43;;;;;;;31.30;19.52;;;;;;;4.50;100.00;92674.78;5069015;28;20554;-72
2023/03/05 07:27:10;;;;;;;29.30;18.13;;;;;;;4.44;100.00;92688.22;5066984;28;20041;-72
2023/03/05 07:29:38;;;;;;;31.50;19.02;;;;;;;4.10;100.00;92672.75;5059707;28;20553;-72
2023/03/05 07:32:06;;;;;;;30.55;17.67;;;;;;;4.24;100.00;92672.84;5068885;28;20044;-72
2023/03/05 07:34:32;;;;;;;30.80;18.08;;;;;;;4.21;100.00;92663.81;5066030;28;20084;-71
2023/03/05 07:36:59;;;;;;;31.98;18.23;;;;;;;4.51;100.00;92660.31;5066825;28;20492;-71
2023/03/05 07:39:26;;;;;;;34.50;19.70;;;;;;;4.45;100.00;92663.59;5068380;28;20057;-71
2023/03/05 07:41:52;;;;;;;30.95;18.63;;;;;;;4.32;100.00;92652.38;5069202;28;20094;-71
2023/03/05 07:44:19;;;;;;;36.20;20.77;;;;;;;4.53;100.00;92664.25;5068969;28;20098;-71
2023/03/05 07:46:47;;;;;;;33.00;18.13;;;;;;;4.58;100.00;92663.69;5068707;28;20500;-71
2023/03/05 07:49:14;;;;;;;33.33;19.92;;;;;;;4.52;100.00;92662.69;5067915;28;20098;-72
2023/03/05 07:51:48;;;;;;;34.72;20.70;;;;;;;4.57;100.00;92657.03;5068572;28;20052;-72
2023/03/05 07:54:15;;;;;;;31.77;18.55;;;;;;;4.61;100.00;92650.59;5068233;28;20782;-73
2023/03/05 07:56:41;;;;;;;31.90;18.67;;;;;;;4.72;100.00;92656.16;5068388;28;20109;-73
2023/03/05 07:59:11;;;;;;;35.72;20.08;;;;;;;4.99;100.00;92649.41;5069356;28;20048;-72
2023/03/05 08:01:38;;;;;;;30.48;18.83;;;;;;;5.10;100.00;92654.94;5069161;28;20052;-73
2023/03/05 08:04:07;;;;;;;35.58;21.50;;;;;;;5.29;100.00;92649.16;5068197;28;20091;-72
2023/03/05 08:06:34;;;;;;;31.38;20.20;;;;;;;5.39;100.00;92655.63;5069065;28;20126;-72
2023/03/05 08:09:01;;;;;;;30.10;18.40;;;;;;;5.24;100.00;92659.13;5068513;28;20044;-72
2023/03/05 08:11:28;;;;;;;35.25;21.15;;;;;;;5.06;100.00;92654.56;5072715;28;20048;-72
2023/03/05 08:13:58;;;;;;;34.95;21.23;;;;;;;4.98;100.00;92652.16;5057241;28;20048;-72
2023/03/05 08:16:25;;;;;;;34.33;19.63;;;;;;;4.72;100.00;92644.19;5070593;28;20088;-72
2023/03/05 08:18:56;;;;;;;29.42;19.15;;;;;;;4.62;100.00;92643.75;5071557;28;20046;-72
2023/03/05 08:21:28;;;;;;;34.08;21.35;;;;;;;4.60;100.00;92645.69;5059648;28;20045;-72
2023/03/05 08:23:55;;;;;;;30.80;20.15;;;;;;;4.64;100.00;92644.34;5059294;28;20098;-72
2023/03/05 08:26:24;;;;;;;32.25;19.00;;;;;;;4.78;100.00;92645.22;5072148;28;20056;-72
2023/03/05 08:28:51;;;;;;;33.97;19.15;;;;;;;4.96;100.00;92644.72;5063545;28;20443;-72
2023/03/05 08:31:20;;;;;;;30.70;19.50;;;;;;;4.84;99.07;92644.47;5072433;28;20053;-72
2023/03/05 08:33:47;;;;;;;30.98;19.02;;;;;;;4.89;98.48;92641.34;5071809;28;20041;-72
2023/03/05 08:36:14;;;;;;;29.17;18.85;;;;;;;4.98;97.22;92639.41;5071615;28;20401;-70
2023/03/05 08:38:43;;;;;;;30.48;18.60;;;;;;;5.12;99.01;92638.50;5072365;28;20087;-69
2023/03/05 08:41:10;;;;;;;30.80;18.77;;;;;;;5.04;97.32;92634.38;5071553;28;20088;-69
2023/03/05 08:43:37;;;;;;;36.13;17.63;;;;;;;4.97;99.17;92614.94;5072379;28;20044;-69
2023/03/05 08:46:04;;;;;;;31.73;19.17;;;;;;;4.96;98.59;92629.44;5071899;28;20048;-70
2023/03/05 08:48:33;;;;;;;31.48;18.92;;;;;;;4.94;97.33;92632.19;5053166;28;20048;-71
2023/03/05 08:51:05;;;;;;;29.48;18.65;;;;;;;5.09;97.42;92618.50;5071953;28;20052;-70
2023/03/05 08:53:32;;;;;;;32.80;19.65;;;;;;;5.14;97.86;92607.78;5071541;28;20497;-70
2023/03/05 08:56:00;;;;;;;30.80;19.33;;;;;;;5.17;99.98;92615.03;5072063;28;20052;-70
2023/03/05 08:58:27;;;;;;;34.80;20.85;;;;;;;5.02;97.66;92612.63;5071256;28;20098;-70
2023/03/05 09:00:53;;;;;;;39.53;21.05;;;;;;;5.10;98.78;92609.13;5071491;28;20573;-70
2023/03/05 09:03:20;;;;;;;35.28;19.40;;;;;;;5.35;99.78;92611.94;5071241;28;20045;-70
2023/03/05 09:05:47;;;;;;;50.60;30.92;;;;;;;5.58;97.83;92603.16;5071317;28;20497;-70
2023/03/05 09:08:14;;;;;;;32.53;19.95;;;;;;;5.81;97.48;92602.03;5071085;28;20045;-70
2023/03/05 09:10:41;;;;;;;29.77;17.33;;;;;;;5.88;94.89;92606.16;5071555;28;20084;-70
2023/03/05 09:13:10;;;;;;;28.63;17.20;;;;;;;5.81;93.50;92596.91;5059326;28;20132;-70
2023/03/05 09:15:37;;;;;;;27.90;17.70;;;;;;;5.97;93.65;92600.88;5071577;28;20044;-70
2023/03/05 09:18:04;;;;;;;27.55;16.98;;;;;;;5.89;91.66;92596.75;5070908;28;20083;-70
2023/03/05 09:20:32;;;;;;;24.92;16.00;;;;;;;5.87;91.37;92596.94;5065462;28;20110;-70
2023/03/05 09:22:58;;;;;;;28.77;16.95;;;;;;;6.32;94.98;92584.56;5052532;28;20103;-70
2023/03/05 09:25:25;;;;;;;29.33;17.73;;;;;;;6.59;92.69;92582.78;5071128;28;20504;-70
2023/03/05 09:27:52;;;;;;;30.58;19.35;;;;;;;6.46;90.48;92549.63;5069168;28;20040;-72
2023/03/05 09:30:21;;;;;;;28.20;16.67;;;;;;;6.32;89.21;92600.66;5070783;28;20463;-72
2023/03/05 09:32:49;;;;;;;26.02;16.35;;;;;;;6.28;88.38;92581.63;5070957;28;20098;-71
2023/03/05 09:35:16;;;;;;;27.50;17.00;;;;;;;5.95;89.80;92592.63;5070815;28;20090;-72
2023/03/05 09:37:43;;;;;;;29.52;17.13;;;;;;;5.95;91.53;92590.88;5070936;28;20088;-71
2023/03/05 09:40:15;;;;;;;29.45;16.75;;;;;;;5.87;91.28;92594.38;5070603;28;20080;-72
2023/03/05 09:42:54;;;;;;;31.75;18.73;;;;;;;5.75;90.22;92591.63;5071054;28;20044;-72
2023/03/05 09:45:26;;;;;;;29.60;17.27;;;;;;;5.70;92.06;92585.56;5044515;28;20447;-71
2023/03/05 09:48:01;;;;;;;27.42;17.35;;;;;;;6.03;93.65;92584.81;5070484;28;20048;-71
2023/03/05 09:50:40;;;;;;;34.75;19.80;;;;;;;6.09;91.43;92581.47;5070766;28;20516;-71
2023/03/05 09:53:17;;;;;;;42.85;25.77;;;;;;;6.08;91.64;92571.47;5070533;28;20044;-71
2023/03/05 09:55:47;;;;;;;27.95;16.65;;;;;;;5.99;91.27;92573.41;5070951;28;20466;-71
2023/03/05 09:58:18;;;;;;;27.20;17.52;;;;;;;5.85;91.73;92575.16;5070713;28;20048;-71
2023/03/05 10:00:50;;;;;;;27.13;16.27;;;;;;;6.17;92.85;92567.75;5070397;28;20041;-71
2023/03/05 10:03:25;;;;;;;23.02;15.85;;;;;;;6.38;92.24;92561.63;5050647;28;20101;-72
2023/03/05 10:06:03;;;;;;;25.88;15.60;;;;;;;6.57;91.14;92561.75;5070095;28;20072;-73
2023/03/05 10:08:41;;;;;;;29.95;17.27;;;;;;;6.62;90.04;92561.16;5070258;28;20048;-71
2023/03/05 10:11:22;;;;;;;27.38;17.55;;;;;;;6.82;89.79;92556.00;5070083;28;20040;-71
2023/03/05 10:13:51;;;;;;;27.65;16.83;;;;;;;6.77;89.66;92554.03;5069851;28;20512;-70
2023/03/05 10:16:57;;;;;;;27.10;16.23;;;;;;;6.67;89.67;92561.34;5070094;28;20447;-71
2023/03/05 10:19:41;;;;;;;23.73;15.68;;;;;;;6.76;86.90;92546.59;5064625;28;20125;-70
2023/03/05 10:22:18;;;;;;;27.38;16.70;;;;;;;6.72;87.79;92556.44;5069273;28;20489;-70
2023/03/05 10:25:01;;;;;;;25.58;16.92;;;;;;;6.77;90.06;92543.81;5070103;28;20049;-71
2023/03/05 10:27:40;;;;;;;25.52;16.02;;;;;;;6.99;89.59;92542.78;5065857;28;20045;-70
2023/03/05 10:30:23;;;;;;;31.35;17.02;;;;;;;6.90;87.31;92530.22;5059478;28;20049;-70
2023/03/05 10:32:59;;;;;;;25.45;16.70;;;;;;;7.04;88.78;92532.72;5058844;28;20111;-70
2023/03/05 10:35:48;;;;;;;25.80;16.40;;;;;;;6.53;87.98;92501.91;5068715;28;20501;-70
2023/03/05 10:38:31;;;;;;;27.67;17.58;;;;;;;6.57;88.58;92515.81;5069671;28;20070;-70
2023/03/05 10:41:04;;;;;;;24.95;16.65;;;;;;;6.19;87.20;92493.56;5070021;28;20045;-70
2023/03/05 10:43:39;;;;;;;28.42;17.08;;;;;;;6.53;89.40;92514.69;5070011;28;20048;-70
2023/03/05 10:46:12;;;;;;;30.25;17.40;;;;;;;6.70;86.61;92514.22;5069834;28;20090;-70
2023/03/05 10:48:44;;;;;;;28.60;19.10;;;;;;;6.48;88.64;92520.38;5069538;28;20524;-70
2023/03/05 10:51:17;;;;;;;27.88;17.33;;;;;;;6.58;89.06;92509.75;5068425;28;20142;-70
2023/03/05 10:53:53;;;;;;;28.73;17.23;;;;;;;6.37;89.46;92513.34;5069678;28;20051;-70
2023/03/05 10:56:23;;;;;;;31.75;18.75;;;;;;;6.09;90.77;92504.19;5069800;28;20049;-70
2023/03/05 10:58:51;;;;;;;25.40;16.10;;;;;;;6.01;89.78;92505.16;5069530;28;20059;-70
2023/03/05 11:01:23;;;;;;;27.02;17.50;;;;;;;6.26;92.02;92499.44;5069572;28;20591;-70
2023/03/05 11:03:53;;;;;;;29.17;17.75;;;;;;;6.47;90.30;92492.53;5069677;28;20098;-70
2023/03/05 11:06:31;;;;;;;27.88;16.80;;;;;;;6.54;90.38;92491.50;5069442;28;20052;-70
2023/03/05 11:09:16;;;;;;;43.42;23.55;;;;;;;6.64;89.66;92495.38;5069246;28;20044;-70
2023/03/05 11:11:43;;;;;;;28.70;16.95;;;;;;;6.26;87.85;92481.59;5069194;28;20137;-70
2023/03/05 11:14:28;;;;;;;24.80;16.08;;;;;;;6.45;88.91;92479.16;5069214;28;20090;-70
2023/03/05 11:16:56;;;;;;;25.92;14.95;;;;;;;6.60;89.41;92468.69;5068706;28;20041;-70
2023/03/05 11:19:28;;;;;;;24.25;15.80;;;;;;;6.74;87.78;92469.44;5069239;28;20049;-70
2023/03/05 11:22:16;;;;;;;26.17;16.95;;;;;;;6.80;87.95;92469.41;5051524;28;20056;-70
2023/03/05 11:24:45;;;;;;;36.70;22.17;;;;;;;6.64;87.86;92470.66;5063597;28;20099;-70
2023/03/05 11:27:31;;;;;;;28.90;18.20;;;;;;;6.39;88.89;92471.34;5066159;28;20048;-70